Time;durP1;ratioP1;P1;durP2;ratioP2;P2;SDS_P1;SDS_P2;PMS_P1;PMS_P2;Temp;Humidity;BMP_temperature;BMP_pressure;BME280_temperature;BME280_humidity;BME280_pressure;Samples;Min_cycle;Max_cycle;Signal;HPM_P1;HPM_P2
2023/06/20 00:02:15;;;;;;;14.43;11.77;;;17.80;99.90;;;;;;4943547;29;20051;-75
2023/06/20 00:04:41;;;;;;;15.55;11.65;;;17.80;99.90;;;;;;4927276;29;20039;-75
2023/06/20 00:07:07;;;;;;;16.30;12.00;;;17.70;99.90;;;;;;4927107;29;20066;-75
2023/06/20 00:09:32;;;;;;;13.20;10.63;;;17.70;99.90;;;;;;4943621;29;20051;-75
2023/06/20 00:11:58;;;;;;;13.70;11.18;;;17.80;99.90;;;;;;4941982;29;20108;-75
2023/06/20 00:14:24;;;;;;;13.60;11.50;;;17.80;99.90;;;;;;4943682;29;20046;-75
2023/06/20 00:16:50;;;;;;;13.05;11.00;;;17.70;99.90;;;;;;4926208;29;20074;-75
2023/06/20 00:19:15;;;;;;;14.20;11.07;;;17.70;99.90;;;;;;4943426;29;20062;-74
2023/06/20 00:21:42;;;;;;;15.20;11.38;;;17.60;99.90;;;;;;4959692;29;20127;-75
2023/06/20 00:24:09;;;;;;;13.48;11.00;;;17.60;99.90;;;;;;4960127;29;20047;-75
2023/06/20 00:26:38;;;;;;;14.20;11.45;;;17.60;99.90;;;;;;4943179;29;20078;-75
2023/06/20 00:29:04;;;;;;;14.45;11.00;;;17.60;99.90;;;;;;4942251;29;20369;-75
2023/06/20 00:31:30;;;;;;;15.30;10.88;;;17.60;99.90;;;;;;4950520;28;20142;-75
2023/06/20 00:33:55;;;;;;;14.95;11.15;;;17.60;99.90;;;;;;4941593;29;20075;-74
2023/06/20 00:36:25;;;;;;;14.90;10.63;;;17.60;99.90;;;;;;4944765;29;20046;-75
2023/06/20 00:38:55;;;;;;;11.75;10.13;;;17.60;99.90;;;;;;4958739;28;20059;-75
2023/06/20 00:41:21;;;;;;;15.43;11.27;;;17.60;99.90;;;;;;4963441;29;20051;-75
2023/06/20 00:43:50;;;;;;;14.15;10.73;;;17.60;99.90;;;;;;4931258;29;20051;-75
2023/06/20 00:46:19;;;;;;;15.45;11.15;;;17.60;99.90;;;;;;4945718;29;20053;-75
2023/06/20 00:48:46;;;;;;;12.68;10.88;;;17.60;99.90;;;;;;4964193;29;20062;-75
2023/06/20 00:51:13;;;;;;;11.57;10.02;;;17.50;99.90;;;;;;4962721;29;20047;-74
2023/06/20 00:53:39;;;;;;;14.10;10.13;;;17.40;99.90;;;;;;4964151;29;20070;-75
2023/06/20 00:56:05;;;;;;;14.40;11.75;;;17.40;99.90;;;;;;4942923;29;20055;-75
2023/06/20 00:58:31;;;;;;;14.57;12.23;;;17.40;99.90;;;;;;4946404;29;20078;-75
2023/06/20 01:00:57;;;;;;;18.33;10.90;;;17.40;99.90;;;;;;4946480;29;20111;-75
2023/06/20 01:03:23;;;;;;;16.67;12.18;;;17.50;99.90;;;;;;4945156;29;20043;-75
2023/06/20 01:06:21;;;;;;;14.90;11.73;;;17.50;99.90;;;;;;4946661;29;20046;-75
2023/06/20 01:08:54;;;;;;;17.73;12.77;;;17.50;99.90;;;;;;4919747;29;20090;-73
2023/06/20 01:11:29;;;;;;;14.75;11.65;;;17.50;99.90;;;;;;4946562;29;20059;-73
2023/06/20 01:14:27;;;;;;;15.68;12.10;;;17.50;99.90;;;;;;4931152;29;20118;-73
2023/06/20 01:16:57;;;;;;;16.30;12.43;;;17.50;99.90;;;;;;4945456;29;20063;-73
2023/06/20 01:20:12;;;;;;;17.40;13.07;;;17.50;99.90;;;;;;4946765;29;20055;-74
2023/06/20 01:23:08;;;;;;;15.43;12.57;;;17.60;99.90;;;;;;4962112;28;20446;-74
2023/06/20 01:25:37;;;;;;;18.58;12.30;;;17.50;99.90;;;;;;4962473;29;20478;-73
2023/06/20 01:28:12;;;;;;;18.08;13.35;;;17.50;99.90;;;;;;4963483;29;20055;-74
2023/06/20 01:30:45;;;;;;;15.30;12.85;;;17.50;99.90;;;;;;4930031;29;20107;-74
2023/06/20 01:33:13;;;;;;;16.98;12.43;;;17.50;99.90;;;;;;4957218;28;20043;-74
2023/06/20 01:35:41;;;;;;;16.33;12.20;;;17.50;99.90;;;;;;4946210;29;20127;-74
2023/06/20 01:38:09;;;;;;;15.98;12.45;;;17.50;99.90;;;;;;4943400;29;20107;-73
2023/06/20 01:40:37;;;;;;;16.30;12.70;;;17.50;99.90;;;;;;4945727;29;20062;-73
2023/06/20 01:43:05;;;;;;;18.55;13.30;;;17.50;99.90;;;;;;4961144;28;20051;-73
2023/06/20 01:45:35;;;;;;;18.95;13.70;;;17.50;99.90;;;;;;4945718;29;20059;-74
2023/06/20 01:48:04;;;;;;;17.90;12.80;;;17.50;99.90;;;;;;4946137;29;20063;-73
2023/06/20 01:50:30;;;;;;;18.23;14.10;;;17.40;99.90;;;;;;4943856;29;20039;-74
2023/06/20 01:52:58;;;;;;;18.67;14.93;;;17.40;99.90;;;;;;4945805;29;20273;-74
2023/06/20 01:55:25;;;;;;;18.58;13.55;;;17.40;99.90;;;;;;4928021;29;20530;-73
2023/06/20 01:57:54;;;;;;;19.83;13.73;;;17.40;99.90;;;;;;4945317;29;20107;-74
2023/06/20 02:00:21;;;;;;;17.08;13.52;;;17.40;99.90;;;;;;4943979;29;20059;-73
2023/06/20 02:02:48;;;;;;;19.80;14.90;;;17.40;99.90;;;;;;4945018;29;20054;-73
2023/06/20 02:05:15;;;;;;;18.02;14.60;;;17.40;99.90;;;;;;4945820;29;20058;-73
2023/06/20 02:07:42;;;;;;;20.92;14.43;;;17.40;99.90;;;;;;4961515;29;20054;-73
2023/06/20 02:10:10;;;;;;;20.95;14.65;;;17.40;99.90;;;;;;4963371;29;20043;-73
2023/06/20 02:12:36;;;;;;;20.83;16.17;;;17.40;99.90;;;;;;4944149;29;20560;-73
2023/06/20 02:15:04;;;;;;;22.67;16.15;;;17.40;99.90;;;;;;4945123;29;20050;-73
2023/06/20 02:17:31;;;;;;;19.70;15.80;;;17.30;99.90;;;;;;4962741;29;20046;-74
2023/06/20 02:19:57;;;;;;;18.90;16.05;;;17.40;99.90;;;;;;4944763;29;20051;-73
2023/06/20 02:22:26;;;;;;;22.30;16.98;;;17.30;99.90;;;;;;4945221;29;20045;-73
2023/06/20 02:24:57;;;;;;;23.48;16.55;;;17.30;99.90;;;;;;4943302;29;20374;-74
2023/06/20 02:27:24;;;;;;;24.08;18.05;;;17.20;99.90;;;;;;4952834;29;20054;-73
2023/06/20 02:29:51;;;;;;;22.52;17.73;;;17.20;99.90;;;;;;4943406;29;20051;-73
2023/06/20 02:32:18;;;;;;;24.00;17.83;;;17.30;99.90;;;;;;4945095;29;20051;-73
2023/06/20 02:34:47;;;;;;;23.42;17.67;;;17.30;99.90;;;;;;4944468;29;20126;-74
2023/06/20 02:37:14;;;;;;;21.73;18.20;;;17.30;99.90;;;;;;4967939;28;20098;-73
2023/06/20 02:39:40;;;;;;;24.30;17.55;;;17.30;99.90;;;;;;4944930;29;20114;-73
2023/06/20 02:42:05;;;;;;;22.25;17.60;;;17.30;99.90;;;;;;4927880;29;20051;-73
2023/06/20 02:44:31;;;;;;;24.75;19.00;;;17.30;99.90;;;;;;4945026;29;20062;-73
2023/06/20 02:47:15;;;;;;;23.13;18.00;;;17.30;99.90;;;;;;4943539;29;20691;-74
2023/06/20 02:50:07;;;;;;;23.90;19.23;;;17.30;99.90;;;;;;4937729;29;20055;-73
2023/06/20 02:52:39;;;;;;;23.35;18.60;;;17.20;99.90;;;;;;4945246;29;20050;-73
2023/06/20 02:55:22;;;;;;;26.77;18.85;;;17.20;99.90;;;;;;4943240;29;20050;-73
2023/06/20 02:57:54;;;;;;;24.40;19.38;;;17.20;99.90;;;;;;4941932;29;20116;-73
2023/06/20 03:00:21;;;;;;;;;;;17.20;99.90;;;;;;4941375;29;20047;-73
2023/06/20 03:03:11;;;;;;;23.92;17.77;;;17.20;99.90;;;;;;4943058;29;19925;-74
2023/06/20 03:05:44;;;;;;;24.73;19.20;;;17.20;99.90;;;;;;4962074;29;20145;-74
2023/06/20 03:08:15;;;;;;;26.23;19.40;;;17.30;99.90;;;;;;4960157;29;20122;-73
2023/06/20 03:10:43;;;;;;;26.85;19.17;;;17.20;99.90;;;;;;4962765;28;20039;-73
2023/06/20 03:13:14;;;;;;;26.95;19.13;;;17.20;99.90;;;;;;4944126;29;20039;-74
2023/06/20 03:15:41;;;;;;;24.13;18.77;;;17.20;99.90;;;;;;4928231;29;20043;-74
2023/06/20 03:18:07;;;;;;;23.73;19.23;;;17.20;99.90;;;;;;4944441;29;20047;-74
2023/06/20 03:20:34;;;;;;;26.08;19.83;;;17.20;99.90;;;;;;4960475;29;20086;-74
2023/06/20 03:23:00;;;;;;;26.20;19.58;;;17.30;99.90;;;;;;4944281;29;20055;-73
2023/06/20 03:25:25;;;;;;;27.55;20.17;;;17.20;99.90;;;;;;4944166;29;20051;-73
2023/06/20 03:27:51;;;;;;;27.75;20.92;;;17.20;99.90;;;;;;4944310;29;20047;-73
2023/06/20 03:30:17;;;;;;;25.73;19.58;;;17.20;99.90;;;;;;4943206;29;20047;-74
2023/06/20 03:32:43;;;;;;;24.73;19.95;;;17.20;99.90;;;;;;4960936;29;20070;-74
2023/06/20 03:35:09;;;;;;;27.05;19.75;;;17.20;99.90;;;;;;4961478;29;20389;-73
2023/06/20 03:37:34;;;;;;;25.25;20.27;;;17.20;99.90;;;;;;4942537;29;20108;-73
2023/06/20 03:40:00;;;;;;;25.45;19.17;;;17.20;99.90;;;;;;4943683;29;20066;-73
2023/06/20 03:42:26;;;;;;;23.85;18.55;;;17.20;99.90;;;;;;4942426;29;20107;-74
2023/06/20 03:44:51;;;;;;;24.85;18.58;;;17.20;99.90;;;;;;4912749;29;20043;-74
2023/06/20 03:47:18;;;;;;;25.20;18.08;;;17.20;99.90;;;;;;4942911;29;20155;-74
2023/06/20 03:49:43;;;;;;;23.02;17.52;;;17.20;99.90;;;;;;4943441;29;20050;-74
2023/06/20 03:52:09;;;;;;;23.88;18.23;;;17.20;99.90;;;;;;4928192;29;20054;-74
2023/06/20 03:54:37;;;;;;;23.98;18.38;;;17.20;99.90;;;;;;4942487;29;20071;-74
2023/06/20 03:57:03;;;;;;;26.00;18.40;;;17.20;99.90;;;;;;4928543;29;20051;-74
2023/06/20 03:59:28;;;;;;;25.35;18.20;;;17.20;99.90;;;;;;4959609;29;20066;-75
2023/06/20 04:01:54;;;;;;;26.25;18.85;;;17.20;99.90;;;;;;4927575;29;20157;-75
2023/06/20 04:04:20;;;;;;;24.55;18.35;;;17.20;99.90;;;;;;4942032;29;20098;-75
2023/06/20 04:06:49;;;;;;;24.75;18.30;;;17.20;99.90;;;;;;4943577;29;20050;-74
2023/06/20 04:09:19;;;;;;;22.08;18.35;;;17.20;99.90;;;;;;4943663;29;20058;-74
2023/06/20 04:11:45;;;;;;;22.42;18.33;;;17.20;99.90;;;;;;4926654;29;20051;-74
2023/06/20 04:14:11;;;;;;;22.73;18.38;;;17.20;99.90;;;;;;4960873;28;20131;-74
2023/06/20 04:16:36;;;;;;;24.13;18.08;;;17.30;99.90;;;;;;4941872;29;20055;-74
2023/06/20 04:19:03;;;;;;;23.35;18.13;;;17.30;99.90;;;;;;4961149;29;20043;-73
2023/06/20 04:21:31;;;;;;;24.58;17.88;;;17.30;99.90;;;;;;4942747;29;20051;-82
2023/06/20 04:23:57;;;;;;;24.67;17.60;;;17.30;99.90;;;;;;4929906;29;20047;-74
2023/06/20 04:26:23;;;;;;;19.98;16.52;;;17.30;99.90;;;;;;4960995;29;20079;-73
2023/06/20 04:28:49;;;;;;;22.65;17.33;;;17.40;99.90;;;;;;4942534;29;20047;-74
2023/06/20 04:31:14;;;;;;;23.58;17.30;;;17.40;99.90;;;;;;4943212;29;20054;-74
2023/06/20 04:33:43;;;;;;;21.13;16.23;;;17.40;99.90;;;;;;4942205;29;20051;-74
2023/06/20 04:36:15;;;;;;;21.33;17.00;;;17.40;99.90;;;;;;4943487;29;20048;-74
2023/06/20 04:38:44;;;;;;;24.80;16.55;;;17.40;99.90;;;;;;4926414;29;20047;-74
2023/06/20 04:41:10;;;;;;;22.98;17.10;;;17.50;99.90;;;;;;4927385;29;20047;-74
2023/06/20 04:43:36;;;;;;;20.65;15.90;;;17.50;99.90;;;;;;4955007;29;20130;-74
2023/06/20 04:46:04;;;;;;;19.85;16.05;;;17.50;99.90;;;;;;4941802;29;20058;-73
2023/06/20 04:48:30;;;;;;;20.77;16.58;;;17.60;99.90;;;;;;4943992;29;20408;-74
2023/06/20 04:50:56;;;;;;;20.17;16.85;;;17.60;99.90;;;;;;4961972;28;20054;-74
2023/06/20 04:53:25;;;;;;;21.60;16.58;;;17.60;99.90;;;;;;4961276;29;20039;-74
2023/06/20 04:55:52;;;;;;;21.70;15.75;;;17.70;99.90;;;;;;4941679;29;20063;-74
2023/06/20 04:58:18;;;;;;;19.73;15.98;;;17.70;99.90;;;;;;4941864;29;20059;-74
2023/06/20 05:00:43;;;;;;;23.27;17.60;;;17.70;99.90;;;;;;4939877;29;20055;-74
2023/06/20 05:03:09;;;;;;;22.52;16.23;;;17.80;99.90;;;;;;4941675;29;20050;-74
2023/06/20 05:05:35;;;;;;;19.00;15.55;;;17.90;99.90;;;;;;4959702;29;20054;-74
2023/06/20 05:08:00;;;;;;;19.30;16.25;;;17.90;99.90;;;;;;4941693;29;20051;-74
2023/06/20 05:10:26;;;;;;;21.13;16.83;;;18.10;99.90;;;;;;4942449;29;20073;-74
2023/06/20 05:12:52;;;;;;;21.73;17.08;;;18.10;99.90;;;;;;4926546;29;20043;-72
2023/06/20 05:15:23;;;;;;;22.52;16.48;;;18.20;99.90;;;;;;4942597;29;20571;-71
2023/06/20 05:17:50;;;;;;;20.15;17.27;;;18.30;99.90;;;;;;4960751;29;20055;-71
2023/06/20 05:20:16;;;;;;;21.27;18.02;;;18.40;99.90;;;;;;4958641;29;20066;-73
2023/06/20 05:22:42;;;;;;;21.80;16.17;;;18.50;99.90;;;;;;4956533;29;20051;-74
2023/06/20 05:25:07;;;;;;;18.73;15.70;;;18.60;99.90;;;;;;4942244;28;20054;-74
2023/06/20 05:27:33;;;;;;;20.95;16.40;;;18.60;99.90;;;;;;4944623;29;20047;-74
2023/06/20 05:29:59;;;;;;;21.00;16.52;;;18.60;99.90;;;;;;4961836;29;20066;-74
2023/06/20 05:32:25;;;;;;;19.27;16.35;;;18.60;99.90;;;;;;4944886;29;20047;-74
2023/06/20 05:34:50;;;;;;;21.75;17.15;;;18.70;99.90;;;;;;4962620;29;20489;-74
2023/06/20 05:37:16;;;;;;;19.75;16.85;;;18.70;99.90;;;;;;4961003;29;20047;-74
2023/06/20 05:39:42;;;;;;;21.52;17.08;;;18.70;99.90;;;;;;4945385;29;20086;-74
2023/06/20 05:42:08;;;;;;;21.48;17.27;;;18.70;99.90;;;;;;4943428;29;20051;-74
2023/06/20 05:44:33;;;;;;;19.85;15.95;;;18.70;99.90;;;;;;4945482;29;20179;-75
2023/06/20 05:46:59;;;;;;;21.50;16.27;;;18.70;99.90;;;;;;4944160;29;20539;-78
2023/06/20 05:49:25;;;;;;;23.52;15.95;;;18.80;99.90;;;;;;4926929;29;20134;-77
2023/06/20 05:51:54;;;;;;;17.98;15.57;;;18.90;99.90;;;;;;4945185;29;20078;-77
2023/06/20 05:54:22;;;;;;;17.50;15.35;;;18.90;99.90;;;;;;4927507;29;20586;-75
2023/06/20 05:56:49;;;;;;;27.42;16.40;;;19.00;99.90;;;;;;4938093;29;20051;-75
2023/06/20 05:59:14;;;;;;;19.83;15.52;;;19.10;99.90;;;;;;4942878;29;20047;-74
2023/06/20 06:01:40;;;;;;;22.10;16.45;;;19.10;99.90;;;;;;4962442;29;20054;-74
2023/06/20 06:04:06;;;;;;;19.52;15.95;;;19.20;99.90;;;;;;4960678;29;20044;-74
2023/06/20 06:06:32;;;;;;;18.98;14.93;;;19.20;99.90;;;;;;4961855;29;20512;-75
2023/06/20 06:08:58;;;;;;;19.45;15.18;;;19.30;99.90;;;;;;4928584;29;20058;-74
2023/06/20 06:11:25;;;;;;;16.50;14.70;;;19.30;99.90;;;;;;4960613;29;20051;-75
2023/06/20 06:13:51;;;;;;;18.42;15.55;;;19.40;99.90;;;;;;4944171;29;20374;-74
2023/06/20 06:16:17;;;;;;;20.10;15.20;;;19.40;99.90;;;;;;4941984;29;20058;-74
2023/06/20 06:18:43;;;;;;;18.95;15.80;;;19.40;99.90;;;;;;4914340;29;20058;-75
2023/06/20 06:21:09;;;;;;;20.73;14.80;;;19.40;99.90;;;;;;4925223;29;20043;-74
2023/06/20 06:23:35;;;;;;;18.92;15.70;;;19.50;99.90;;;;;;4942230;29;20073;-81
2023/06/20 06:26:02;;;;;;;18.55;15.52;;;19.60;99.90;;;;;;4943329;29;20488;-75
2023/06/20 06:28:29;;;;;;;18.48;14.20;;;19.60;99.90;;;;;;4937455;28;20063;-76
2023/06/20 06:30:58;;;;;;;16.63;14.27;;;19.70;99.90;;;;;;4905585;29;20052;-74
2023/06/20 06:33:24;;;;;;;18.70;14.13;;;19.80;99.90;;;;;;4893626;29;20089;-75
2023/06/20 06:35:51;;;;;;;19.48;13.50;;;19.90;99.90;;;;;;4896656;29;20103;-81
2023/06/20 06:38:17;;;;;;;18.58;13.70;;;19.90;99.90;;;;;;4908752;29;20063;-75
2023/06/20 06:40:45;;;;;;;16.20;12.82;;;20.00;99.90;;;;;;4910817;29;20048;-75
2023/06/20 06:43:11;;;;;;;16.48;13.57;;;20.10;99.90;;;;;;4911735;29;20070;-74
2023/06/20 06:45:37;;;;;;;15.43;13.32;;;20.20;99.90;;;;;;4893120;29;20059;-74
2023/06/20 06:48:03;;;;;;;17.50;14.60;;;20.20;99.90;;;;;;4908328;29;20139;-75
2023/06/20 06:50:29;;;;;;;15.25;13.07;;;20.20;99.90;;;;;;4907317;29;20047;-75
2023/06/20 06:52:55;;;;;;;17.65;13.18;;;20.30;99.90;;;;;;4893507;29;20063;-76
2023/06/20 06:55:20;;;;;;;18.08;14.10;;;20.30;99.90;;;;;;4873742;29;20128;-72
2023/06/20 06:57:46;;;;;;;16.77;13.98;;;20.40;99.90;;;;;;4891905;29;20040;-75
2023/06/20 07:00:14;;;;;;;14.95;12.57;;;20.40;99.90;;;;;;4876522;29;20056;-74
2023/06/20 07:02:41;;;;;;;18.55;13.27;;;20.50;99.90;;;;;;4892374;29;20048;-74
2023/06/20 07:05:07;;;;;;;14.07;12.63;;;20.70;99.90;;;;;;4892876;29;20063;-74
2023/06/20 07:07:33;;;;;;;14.23;12.73;;;20.80;99.90;;;;;;4876193;29;20341;-74
2023/06/20 07:09:58;;;;;;;14.35;12.85;;;20.90;99.90;;;;;;4893123;29;20232;-74
2023/06/20 07:12:24;;;;;;;13.88;12.10;;;21.00;99.90;;;;;;4892285;29;20048;-74
2023/06/20 07:14:56;;;;;;;18.42;13.20;;;21.00;99.90;;;;;;4894149;29;20048;-74
2023/06/20 07:17:23;;;;;;;13.70;12.07;;;21.00;99.90;;;;;;4876838;29;20044;-74
2023/06/20 07:19:49;;;;;;;18.48;14.00;;;21.10;99.90;;;;;;4892274;29;20055;-87
2023/06/20 07:22:15;;;;;;;18.33;13.43;;;21.10;99.90;;;;;;4878145;29;20229;-72
2023/06/20 07:24:41;;;;;;;17.77;13.55;;;21.10;99.90;;;;;;4892302;29;20067;-75
2023/06/20 07:27:07;;;;;;;16.15;12.88;;;21.10;99.90;;;;;;4876160;29;20065;-75
2023/06/20 07:29:32;;;;;;;15.73;13.20;;;21.10;99.90;;;;;;4908324;29;20052;-77
2023/06/20 07:31:58;;;;;;;15.70;13.05;;;21.10;99.90;;;;;;4874572;29;20160;-75
2023/06/20 07:34:24;;;;;;;15.10;12.88;;;21.10;99.90;;;;;;4891057;29;20048;-76
2023/06/20 07:36:50;;;;;;;15.00;13.10;;;21.10;99.90;;;;;;4906156;29;20058;-75
2023/06/20 07:39:15;;;;;;;17.23;13.43;;;21.10;99.90;;;;;;4889537;29;20059;-75
2023/06/20 07:41:41;;;;;;;15.70;13.52;;;21.10;99.90;;;;;;4888546;29;20393;-75
2023/06/20 07:44:10;;;;;;;14.93;13.07;;;21.10;99.90;;;;;;4875859;29;20043;-75
2023/06/20 07:46:36;;;;;;;15.75;13.80;;;21.10;99.90;;;;;;4890521;29;20052;-75
2023/06/20 07:49:02;;;;;;;16.95;14.18;;;21.10;99.90;;;;;;4905523;29;20071;-75
2023/06/20 07:51:31;;;;;;;16.08;14.13;;;21.10;99.90;;;;;;4907228;29;20112;-75
2023/06/20 07:53:57;;;;;;;17.05;14.13;;;21.20;99.90;;;;;;4907657;29;20055;-75
2023/06/20 07:56:23;;;;;;;14.85;13.27;;;21.20;99.90;;;;;;4904948;29;20044;-74
2023/06/20 07:58:49;;;;;;;16.35;14.32;;;21.30;99.90;;;;;;4873666;29;20056;-75
2023/06/20 08:01:14;;;;;;;15.48;13.65;;;21.30;99.90;;;;;;4875677;29;20156;-75
2023/06/20 08:03:41;;;;;;;16.48;14.65;;;21.30;99.90;;;;;;4871933;29;20525;-75
2023/06/20 08:06:06;;;;;;;16.48;13.55;;;21.30;99.90;;;;;;4906331;29;20067;-74
2023/06/20 08:08:32;;;;;;;16.45;13.60;;;21.30;99.90;;;;;;4887539;29;20056;-75
2023/06/20 08:10:58;;;;;;;16.70;15.10;;;21.30;99.90;;;;;;4908929;29;20079;-75
2023/06/20 08:13:25;;;;;;;16.00;14.40;;;21.30;99.90;;;;;;4891016;29;20134;-75
2023/06/20 08:15:50;;;;;;;17.20;13.73;;;21.30;99.90;;;;;;4905837;29;20063;-75
2023/06/20 08:18:16;;;;;;;16.17;13.90;;;21.20;99.90;;;;;;4873086;29;20051;-75
2023/06/20 08:20:45;;;;;;;17.02;15.18;;;21.30;99.90;;;;;;4873773;29;20052;-75
2023/06/20 08:23:10;;;;;;;16.00;14.25;;;21.30;99.90;;;;;;4908774;29;20056;-74
2023/06/20 08:25:36;;;;;;;18.52;15.40;;;21.30;99.90;;;;;;4889802;29;20062;-75
2023/06/20 08:28:02;;;;;;;17.42;15.63;;;21.30;99.90;;;;;;4873954;29;20052;-75
2023/06/20 08:30:28;;;;;;;17.88;15.40;;;21.30;99.90;;;;;;4889755;29;20048;-75
2023/06/20 08:32:53;;;;;;;17.00;15.30;;;21.40;99.90;;;;;;4874465;29;20040;-75
2023/06/20 08:35:19;;;;;;;17.52;15.68;;;21.40;99.90;;;;;;4907839;29;20042;-75
2023/06/20 08:37:44;;;;;;;17.27;15.63;;;21.60;99.90;;;;;;4888836;29;20411;-75
2023/06/20 08:40:12;;;;;;;16.80;15.00;;;21.80;99.90;;;;;;4891723;29;20369;-75
2023/06/20 08:42:40;;;;;;;17.05;14.63;;;22.00;99.90;;;;;;4905458;29;20140;-75
2023/06/20 08:45:07;;;;;;;16.02;14.32;;;22.30;99.90;;;;;;4908436;29;20081;-74
2023/06/20 08:47:33;;;;;;;15.00;13.40;;;22.40;99.90;;;;;;4905697;29;20071;-76
2023/06/20 08:49:59;;;;;;;15.23;13.18;;;22.60;99.90;;;;;;4890996;29;20068;-75
2023/06/20 08:52:29;;;;;;;16.10;13.30;;;22.90;99.90;;;;;;4907919;29;20044;-76
2023/06/20 08:54:55;;;;;;;14.45;13.00;;;23.20;99.90;;;;;;4889164;29;20058;-75
2023/06/20 08:57:21;;;;;;;18.83;13.48;;;23.50;99.90;;;;;;4906685;29;20052;-75
2023/06/20 08:59:47;;;;;;;14.50;13.02;;;23.70;99.90;;;;;;4889423;29;20052;-75
2023/06/20 09:02:13;;;;;;;12.38;11.23;;;23.70;99.90;;;;;;4893434;29;20044;-77
2023/06/20 09:04:39;;;;;;;13.45;11.95;;;23.70;99.90;;;;;;4906541;29;20060;-76
2023/06/20 09:07:18;;;;;;;13.88;12.40;;;23.60;99.90;;;;;;4911876;29;20055;-76
2023/06/20 09:09:44;;;;;;;14.73;12.65;;;23.50;99.90;;;;;;4907543;29;20052;-76
2023/06/20 09:12:10;;;;;;;12.00;10.77;;;23.50;99.90;;;;;;4903916;29;20059;-76
2023/06/20 09:14:36;;;;;;;12.82;11.52;;;23.40;99.90;;;;;;4916612;29;20497;-76
2023/06/20 09:17:03;;;;;;;12.23;10.93;;;23.40;99.90;;;;;;4898885;29;20052;-76
2023/06/20 09:19:43;;;;;;;13.02;11.73;;;23.60;99.90;;;;;;4889817;29;20051;-76
2023/06/20 09:22:14;;;;;;;14.30;12.80;;;23.80;99.90;;;;;;4927254;29;20044;-77
2023/06/20 09:24:44;;;;;;;12.57;11.15;;;24.00;99.90;;;;;;4892582;29;20052;-77
2023/06/20 09:27:11;;;;;;;13.85;12.20;;;23.90;99.90;;;;;;4903104;29;20044;-77
2023/06/20 09:29:50;;;;;;;14.55;13.05;;;23.80;99.90;;;;;;4889341;29;20048;-77
2023/06/20 09:32:21;;;;;;;13.57;12.20;;;23.80;99.90;;;;;;4906731;29;20052;-77
2023/06/20 09:34:47;;;;;;;14.30;12.73;;;23.80;99.90;;;;;;4921789;29;20090;-77
2023/06/20 09:37:16;;;;;;;14.23;12.73;;;23.80;99.90;;;;;;4894911;29;20628;-77
2023/06/20 09:39:42;;;;;;;13.57;12.23;;;23.70;99.90;;;;;;4903794;29;20111;-76
2023/06/20 09:42:12;;;;;;;14.02;11.88;;;23.80;99.90;;;;;;4905532;29;20597;-78
2023/06/20 09:44:39;;;;;;;12.05;10.77;;;24.00;99.90;;;;;;4911184;29;20457;-78
2023/06/20 09:47:05;;;;;;;10.88;9.88;;;24.30;99.90;;;;;;4904272;29;20069;-78
2023/06/20 09:49:34;;;;;;;12.90;10.55;;;24.30;99.90;;;;;;4909917;29;20139;-77
2023/06/20 09:52:14;;;;;;;11.18;10.13;;;24.40;99.90;;;;;;4896315;29;20060;-79
2023/06/20 09:54:55;;;;;;;12.25;10.90;;;24.50;99.90;;;;;;4911015;29;20131;-75
2023/06/20 09:57:26;;;;;;;12.23;11.00;;;24.70;99.90;;;;;;4903956;29;20106;-76
2023/06/20 09:59:55;;;;;;;11.32;10.20;;;25.00;99.90;;;;;;4902513;29;20553;-75
2023/06/20 10:02:24;;;;;;;11.10;10.00;;;25.30;99.90;;;;;;4903212;29;20058;-76
2023/06/20 10:04:51;;;;;;;11.63;10.52;;;25.50;99.90;;;;;;4903374;29;20055;-75
2023/06/20 10:07:19;;;;;;;10.15;9.18;;;25.80;99.90;;;;;;4902145;29;20100;-77
2023/06/20 10:09:45;;;;;;;11.13;9.82;;;26.00;99.90;;;;;;4903448;29;20076;-77
2023/06/20 10:12:12;;;;;;;8.82;8.02;;;26.10;99.90;;;;;;4901131;29;20168;-75
2023/06/20 10:14:39;;;;;;;9.35;8.45;;;26.30;99.90;;;;;;4905166;29;20063;-76
2023/06/20 10:17:09;;;;;;;10.35;9.45;;;26.40;99.90;;;;;;4902115;29;20051;-76
2023/06/20 10:19:49;;;;;;;9.48;8.50;;;26.50;99.90;;;;;;4901426;29;20049;-76
2023/06/20 10:22:30;;;;;;;10.23;8.98;;;26.70;99.90;;;;;;4892447;29;20052;-76
2023/06/20 10:24:56;;;;;;;10.60;9.60;;;26.80;99.90;;;;;;4891436;29;20084;-76
2023/06/20 10:27:27;;;;;;;9.23;8.32;;;26.90;99.90;;;;;;4904848;29;20077;-75
2023/06/20 10:29:53;;;;;;;11.55;9.43;;;27.00;99.90;;;;;;4900367;29;20056;-76
2023/06/20 10:32:19;;;;;;;10.07;8.00;;;27.20;99.90;;;;;;4903750;29;20055;-76
2023/06/20 10:34:45;;;;;;;8.30;7.45;;;27.30;99.90;;;;;;4902774;29;20091;-76
2023/06/20 10:37:15;;;;;;;7.78;7.07;;;27.40;99.90;;;;;;4907746;29;20040;-76
2023/06/20 10:39:57;;;;;;;8.35;7.55;;;27.50;99.90;;;;;;4903352;29;20095;-76
2023/06/20 10:42:37;;;;;;;8.85;8.05;;;27.60;99.90;;;;;;4901875;29;20064;-77
2023/06/20 10:45:25;;;;;;;8.30;7.60;;;27.60;99.90;;;;;;4900979;29;20062;-76
2023/06/20 10:47:53;;;;;;;9.57;8.77;;;27.50;99.90;;;;;;4901245;29;20060;-76
2023/06/20 10:50:19;;;;;;;8.98;8.13;;;27.40;99.90;;;;;;4901024;29;20080;-76
2023/06/20 10:52:45;;;;;;;8.60;7.80;;;27.50;99.90;;;;;;4904103;29;20087;-77
2023/06/20 10:55:15;;;;;;;8.35;7.65;;;27.50;99.90;;;;;;4900004;29;20055;-76
2023/06/20 10:57:46;;;;;;;8.25;7.60;;;27.40;99.90;;;;;;4902179;29;20100;-77
2023/06/20 11:00:19;;;;;;;8.45;7.65;;;27.50;99.90;;;;;;4902027;29;20036;-76
2023/06/20 11:02:49;;;;;;;9.57;8.77;;;27.60;99.90;;;;;;4902330;29;20048;-78
2023/06/20 11:05:16;;;;;;;8.68;7.75;;;27.60;99.90;;;;;;4900939;29;20494;-78
2023/06/20 11:08:04;;;;;;;10.05;9.07;;;27.60;99.90;;;;;;4901284;29;20040;-77
2023/06/20 11:10:37;;;;;;;8.82;7.68;;;27.80;99.90;;;;;;4895813;29;20410;-78
2023/06/20 11:13:05;;;;;;;9.05;8.25;;;28.10;99.90;;;;;;4900356;29;20048;-77
2023/06/20 11:15:33;;;;;;;8.68;7.97;;;28.10;99.90;;;;;;4901709;29;20127;-78
2023/06/20 11:18:04;;;;;;;9.77;7.80;;;28.20;99.90;;;;;;4899930;29;20044;-77
2023/06/20 11:20:36;;;;;;;7.95;6.85;;;28.30;99.90;;;;;;4895491;29;20064;-77
2023/06/20 11:23:04;;;;;;;8.70;7.60;;;28.70;99.90;;;;;;4902814;29;20056;-77
2023/06/20 11:25:31;;;;;;;7.70;6.53;;;28.80;99.90;;;;;;4900753;29;20048;-77
2023/06/20 11:28:09;;;;;;;7.07;6.45;;;29.00;99.90;;;;;;4887243;29;20127;-78
2023/06/20 11:30:37;;;;;;;7.50;6.80;;;29.10;99.90;;;;;;4901909;29;20395;-77
2023/06/20 11:33:14;;;;;;;7.57;6.80;;;29.00;99.90;;;;;;4907159;29;20056;-78
2023/06/20 11:35:42;;;;;;;6.80;6.10;;;29.10;93.20;;;;;;4902599;29;20063;-78
2023/06/20 11:38:10;;;;;;;8.00;6.80;;;29.10;99.70;;;;;;4900294;29;20067;-78
2023/06/20 11:40:37;;;;;;;7.82;7.03;;;29.10;99.90;;;;;;4901622;29;20084;-78
2023/06/20 11:43:03;;;;;;;7.63;7.03;;;29.10;99.90;;;;;;4898348;29;20170;-78
2023/06/20 11:45:29;;;;;;;9.32;7.50;;;29.10;99.90;;;;;;4901750;29;20048;-78
2023/06/20 11:48:14;;;;;;;8.50;7.70;;;29.20;99.90;;;;;;4887040;29;20058;-78
2023/06/20 11:50:44;;;;;;;8.85;7.07;;;29.20;99.00;;;;;;4898882;29;20064;-78
2023/06/20 11:53:21;;;;;;;7.28;6.47;;;29.30;99.40;;;;;;4884974;29;20080;-78
2023/06/20 11:55:52;;;;;;;8.05;7.35;;;29.30;95.10;;;;;;4900305;29;20060;-78
2023/06/20 11:58:18;;;;;;;8.00;7.20;;;29.50;97.00;;;;;;4890970;29;20108;-78
2023/06/20 12:00:47;;;;;;;7.20;6.53;;;29.40;99.90;;;;;;4888362;29;20088;-77
2023/06/20 12:03:17;;;;;;;7.30;6.63;;;29.50;98.50;;;;;;4906785;29;20071;-78
2023/06/20 12:05:43;;;;;;;8.35;7.10;;;29.60;94.40;;;;;;4886654;29;20052;-78
2023/06/20 12:08:09;;;;;;;8.77;7.30;;;29.80;90.80;;;;;;4883519;29;20057;-77
2023/06/20 12:10:48;;;;;;;7.50;6.90;;;29.80;90.40;;;;;;4899195;29;20048;-78
2023/06/20 12:13:15;;;;;;;8.73;7.40;;;29.90;89.00;;;;;;4884272;29;20059;-77
2023/06/20 12:15:41;;;;;;;7.82;6.88;;;29.80;90.30;;;;;;4884931;29;20056;-78
2023/06/20 12:18:07;;;;;;;8.35;7.60;;;29.80;90.70;;;;;;4885741;29;20052;-77
2023/06/20 12:20:32;;;;;;;8.25;7.45;;;29.50;90.20;;;;;;4899925;29;20040;-77
2023/06/20 12:22:58;;;;;;;7.78;7.18;;;29.20;92.00;;;;;;4901525;29;20478;-77
2023/06/20 12:25:24;;;;;;;8.18;7.35;;;28.90;94.10;;;;;;4879948;29;20076;-77
2023/06/20 12:27:50;;;;;;;8.05;7.28;;;28.80;98.60;;;;;;4885966;29;20047;-78
2023/06/20 12:30:15;;;;;;;8.55;6.75;;;28.70;99.90;;;;;;4900209;29;20052;-78
2023/06/20 12:32:41;;;;;;;9.50;6.47;;;28.90;99.90;;;;;;4899833;29;20036;-77
2023/06/20 12:35:07;;;;;;;6.68;6.07;;;29.00;97.80;;;;;;4900653;29;20051;-77
2023/06/20 12:37:33;;;;;;;7.78;7.10;;;28.90;92.80;;;;;;4902950;29;20060;-78